sensor_id;sensor_type;location;lat;lon;timestamp;P1;durP1;ratioP1;P2;durP2;ratioP2
22030;SDS011;11179;52.106;21.024;2023-06-22T00:00:52;35.60;;;25.43;;
22030;SDS011;11179;52.106;21.024;2023-06-22T00:03:18;36.63;;;25.40;;
22030;SDS011;11179;52.106;21.024;2023-06-22T00:05:47;38.60;;;24.67;;
22030;SDS011;11179;52.106;21.024;2023-06-22T00:08:13;37.87;;;27.27;;
22030;SDS011;11179;52.106;21.024;2023-06-22T00:10:39;40.10;;;24.83;;
22030;SDS011;11179;52.106;21.024;2023-06-22T00:13:06;37.70;;;25.40;;
22030;SDS011;11179;52.106;21.024;2023-06-22T00:15:32;40.60;;;27.63;;
22030;SDS011;11179;52.106;21.024;2023-06-22T00:17:58;35.20;;;24.57;;
22030;SDS011;11179;52.106;21.024;2023-06-22T00:20:24;41.43;;;27.97;;
22030;SDS011;11179;52.106;21.024;2023-06-22T00:22:53;43.30;;;27.93;;
22030;SDS011;11179;52.106;21.024;2023-06-22T00:25:22;38.40;;;26.03;;
22030;SDS011;11179;52.106;21.024;2023-06-22T00:27:48;36.83;;;25.67;;
22030;SDS011;11179;52.106;21.024;2023-06-22T00:30:14;40.40;;;26.50;;
22030;SDS011;11179;52.106;21.024;2023-06-22T00:32:40;35.50;;;25.17;;
22030;SDS011;11179;52.106;21.024;2023-06-22T00:35:06;35.30;;;25.27;;
22030;SDS011;11179;52.106;21.024;2023-06-22T00:37:32;37.97;;;25.83;;
22030;SDS011;11179;52.106;21.024;2023-06-22T00:39:57;35.30;;;24.93;;
22030;SDS011;11179;52.106;21.024;2023-06-22T00:42:23;38.50;;;26.63;;
22030;SDS011;11179;52.106;21.024;2023-06-22T00:44:48;35.17;;;25.80;;
22030;SDS011;11179;52.106;21.024;2023-06-22T00:47:17;39.67;;;27.00;;
22030;SDS011;11179;52.106;21.024;2023-06-22T00:49:43;42.40;;;27.00;;
22030;SDS011;11179;52.106;21.024;2023-06-22T00:52:09;36.10;;;25.80;;
22030;SDS011;11179;52.106;21.024;2023-06-22T00:54:39;32.30;;;23.60;;
22030;SDS011;11179;52.106;21.024;2023-06-22T00:57:08;46.20;;;25.90;;
22030;SDS011;11179;52.106;21.024;2023-06-22T00:59:36;39.53;;;24.87;;
22030;SDS011;11179;52.106;21.024;2023-06-22T01:02:02;36.20;;;24.73;;
22030;SDS011;11179;52.106;21.024;2023-06-22T01:04:34;39.47;;;25.83;;
22030;SDS011;11179;52.106;21.024;2023-06-22T01:09:44;37.87;;;27.17;;
22030;SDS011;11179;52.106;21.024;2023-06-22T01:12:24;37.70;;;25.30;;
22030;SDS011;11179;52.106;21.024;2023-06-22T01:14:58;34.07;;;24.30;;
22030;SDS011;11179;52.106;21.024;2023-06-22T01:17:29;34.30;;;24.53;;
22030;SDS011;11179;52.106;21.024;2023-06-22T01:19:57;32.20;;;22.67;;
22030;SDS011;11179;52.106;21.024;2023-06-22T01:22:25;35.40;;;24.40;;
22030;SDS011;11179;52.106;21.024;2023-06-22T01:25:08;36.47;;;25.60;;
22030;SDS011;11179;52.106;21.024;2023-06-22T01:27:46;34.23;;;23.50;;
22030;SDS011;11179;52.106;21.024;2023-06-22T01:30:21;34.40;;;23.80;;
22030;SDS011;11179;52.106;21.024;2023-06-22T01:33:00;29.20;;;20.77;;
22030;SDS011;11179;52.106;21.024;2023-06-22T01:35:28;36.10;;;23.27;;
22030;SDS011;11179;52.106;21.024;2023-06-22T01:37:54;38.40;;;23.73;;
22030;SDS011;11179;52.106;21.024;2023-06-22T01:40:20;38.00;;;24.97;;
22030;SDS011;11179;52.106;21.024;2023-06-22T01:42:46;32.57;;;22.03;;
22030;SDS011;11179;52.106;21.024;2023-06-22T01:45:13;33.93;;;22.37;;
22030;SDS011;11179;52.106;21.024;2023-06-22T01:47:39;35.80;;;23.67;;
22030;SDS011;11179;52.106;21.024;2023-06-22T01:50:06;34.63;;;22.03;;
22030;SDS011;11179;52.106;21.024;2023-06-22T01:52:31;35.53;;;24.97;;
22030;SDS011;11179;52.106;21.024;2023-06-22T01:54:59;34.67;;;23.67;;
22030;SDS011;11179;52.106;21.024;2023-06-22T01:57:25;32.60;;;22.83;;
22030;SDS011;11179;52.106;21.024;2023-06-22T02:00:03;38.90;;;26.97;;
22030;SDS011;11179;52.106;21.024;2023-06-22T02:02:54;32.30;;;22.03;;
22030;SDS011;11179;52.106;21.024;2023-06-22T02:05:21;39.70;;;25.07;;
22030;SDS011;11179;52.106;21.024;2023-06-22T02:08:00;37.80;;;24.80;;
22030;SDS011;11179;52.106;21.024;2023-06-22T02:10:32;41.97;;;25.60;;
22030;SDS011;11179;52.106;21.024;2023-06-22T02:12:59;38.67;;;25.63;;
22030;SDS011;11179;52.106;21.024;2023-06-22T02:15:27;39.13;;;25.90;;
22030;SDS011;11179;52.106;21.024;2023-06-22T02:17:53;38.40;;;24.70;;
22030;SDS011;11179;52.106;21.024;2023-06-22T02:20:18;41.00;;;25.80;;
22030;SDS011;11179;52.106;21.024;2023-06-22T02:22:45;39.03;;;27.10;;
22030;SDS011;11179;52.106;21.024;2023-06-22T02:25:10;43.60;;;28.03;;
22030;SDS011;11179;52.106;21.024;2023-06-22T02:27:35;42.30;;;28.70;;
22030;SDS011;11179;52.106;21.024;2023-06-22T02:30:01;43.07;;;29.03;;
22030;SDS011;11179;52.106;21.024;2023-06-22T02:32:27;42.73;;;29.20;;
22030;SDS011;11179;52.106;21.024;2023-06-22T02:34:52;42.83;;;28.73;;
22030;SDS011;11179;52.106;21.024;2023-06-22T02:37:18;51.10;;;29.13;;
22030;SDS011;11179;52.106;21.024;2023-06-22T02:39:43;46.57;;;31.20;;
22030;SDS011;11179;52.106;21.024;2023-06-22T02:42:08;46.93;;;30.50;;
22030;SDS011;11179;52.106;21.024;2023-06-22T02:44:35;44.60;;;29.17;;
22030;SDS011;11179;52.106;21.024;2023-06-22T02:47:01;51.53;;;34.00;;
22030;SDS011;11179;52.106;21.024;2023-06-22T02:49:26;49.40;;;31.40;;
22030;SDS011;11179;52.106;21.024;2023-06-22T02:51:52;51.33;;;33.63;;
22030;SDS011;11179;52.106;21.024;2023-06-22T02:54:18;50.93;;;32.27;;
22030;SDS011;11179;52.106;21.024;2023-06-22T02:56:43;52.70;;;34.27;;
22030;SDS011;11179;52.106;21.024;2023-06-22T02:59:09;55.23;;;35.27;;
22030;SDS011;11179;52.106;21.024;2023-06-22T03:01:35;59.03;;;35.83;;
22030;SDS011;11179;52.106;21.024;2023-06-22T03:04:07;63.50;;;36.27;;
22030;SDS011;11179;52.106;21.024;2023-06-22T03:06:33;65.20;;;38.77;;
22030;SDS011;11179;52.106;21.024;2023-06-22T03:08:59;59.73;;;37.60;;
22030;SDS011;11179;52.106;21.024;2023-06-22T03:11:28;68.50;;;41.80;;
22030;SDS011;11179;52.106;21.024;2023-06-22T03:13:54;74.80;;;40.53;;
22030;SDS011;11179;52.106;21.024;2023-06-22T03:16:20;72.17;;;42.67;;
22030;SDS011;11179;52.106;21.024;2023-06-22T03:18:45;77.97;;;44.87;;
22030;SDS011;11179;52.106;21.024;2023-06-22T03:21:10;73.03;;;43.20;;
22030;SDS011;11179;52.106;21.024;2023-06-22T03:23:36;80.47;;;44.40;;
22030;SDS011;11179;52.106;21.024;2023-06-22T03:26:01;74.87;;;42.87;;
22030;SDS011;11179;52.106;21.024;2023-06-22T03:28:29;78.53;;;41.70;;
22030;SDS011;11179;52.106;21.024;2023-06-22T03:30:54;69.47;;;42.37;;
22030;SDS011;11179;52.106;21.024;2023-06-22T03:33:22;72.67;;;44.10;;
22030;SDS011;11179;52.106;21.024;2023-06-22T03:35:47;76.70;;;44.73;;
22030;SDS011;11179;52.106;21.024;2023-06-22T03:38:12;76.70;;;43.93;;
22030;SDS011;11179;52.106;21.024;2023-06-22T03:40:38;76.83;;;44.90;;
22030;SDS011;11179;52.106;21.024;2023-06-22T03:43:03;72.60;;;43.80;;
22030;SDS011;11179;52.106;21.024;2023-06-22T03:45:28;79.43;;;44.83;;
22030;SDS011;11179;52.106;21.024;2023-06-22T03:47:54;77.53;;;42.30;;
22030;SDS011;11179;52.106;21.024;2023-06-22T03:50:19;75.50;;;43.93;;
22030;SDS011;11179;52.106;21.024;2023-06-22T03:52:45;78.43;;;44.03;;
22030;SDS011;11179;52.106;21.024;2023-06-22T03:55:11;72.17;;;43.10;;
22030;SDS011;11179;52.106;21.024;2023-06-22T03:57:36;79.83;;;43.80;;
22030;SDS011;11179;52.106;21.024;2023-06-22T04:00:02;73.30;;;42.87;;
22030;SDS011;11179;52.106;21.024;2023-06-22T04:02:30;70.67;;;42.97;;
22030;SDS011;11179;52.106;21.024;2023-06-22T04:04:56;71.83;;;42.50;;
22030;SDS011;11179;52.106;21.024;2023-06-22T04:07:21;70.43;;;40.90;;
22030;SDS011;11179;52.106;21.024;2023-06-22T04:09:46;69.33;;;40.80;;
22030;SDS011;11179;52.106;21.024;2023-06-22T04:12:11;66.87;;;39.63;;
22030;SDS011;11179;52.106;21.024;2023-06-22T04:14:37;66.23;;;40.70;;
22030;SDS011;11179;52.106;21.024;2023-06-22T04:17:02;70.90;;;38.90;;
22030;SDS011;11179;52.106;21.024;2023-06-22T04:19:28;66.87;;;39.37;;
22030;SDS011;11179;52.106;21.024;2023-06-22T04:21:53;64.80;;;38.50;;
22030;SDS011;11179;52.106;21.024;2023-06-22T04:24:18;64.60;;;38.60;;
22030;SDS011;11179;52.106;21.024;2023-06-22T04:26:44;62.30;;;38.10;;
22030;SDS011;11179;52.106;21.024;2023-06-22T04:29:10;63.50;;;37.47;;
22030;SDS011;11179;52.106;21.024;2023-06-22T04:31:36;59.90;;;38.10;;
22030;SDS011;11179;52.106;21.024;2023-06-22T04:34:02;64.97;;;38.50;;
22030;SDS011;11179;52.106;21.024;2023-06-22T04:36:35;64.33;;;36.77;;
22030;SDS011;11179;52.106;21.024;2023-06-22T04:39:10;60.77;;;36.87;;
22030;SDS011;11179;52.106;21.024;2023-06-22T04:41:36;64.60;;;36.97;;
22030;SDS011;11179;52.106;21.024;2023-06-22T04:46:37;61.60;;;35.97;;
22030;SDS011;11179;52.106;21.024;2023-06-22T04:49:05;59.17;;;36.63;;
22030;SDS011;11179;52.106;21.024;2023-06-22T04:51:37;53.13;;;34.40;;
22030;SDS011;11179;52.106;21.024;2023-06-22T04:54:04;58.83;;;36.10;;
22030;SDS011;11179;52.106;21.024;2023-06-22T04:56:30;58.37;;;35.63;;
22030;SDS011;11179;52.106;21.024;2023-06-22T04:58:56;53.87;;;33.83;;
22030;SDS011;11179;52.106;21.024;2023-06-22T05:01:22;62.50;;;34.97;;
22030;SDS011;11179;52.106;21.024;2023-06-22T05:03:47;56.33;;;35.10;;
22030;SDS011;11179;52.106;21.024;2023-06-22T05:06:13;55.03;;;35.20;;
22030;SDS011;11179;52.106;21.024;2023-06-22T05:08:39;55.40;;;34.40;;
22030;SDS011;11179;52.106;21.024;2023-06-22T05:11:05;63.17;;;35.13;;
22030;SDS011;11179;52.106;21.024;2023-06-22T05:13:31;53.40;;;34.00;;
22030;SDS011;11179;52.106;21.024;2023-06-22T05:15:56;52.10;;;33.10;;
22030;SDS011;11179;52.106;21.024;2023-06-22T05:18:26;52.57;;;34.00;;
22030;SDS011;11179;52.106;21.024;2023-06-22T05:20:55;51.13;;;33.07;;
22030;SDS011;11179;52.106;21.024;2023-06-22T05:23:20;56.67;;;31.70;;
22030;SDS011;11179;52.106;21.024;2023-06-22T05:25:46;48.10;;;31.13;;
22030;SDS011;11179;52.106;21.024;2023-06-22T05:28:11;55.73;;;33.73;;
22030;SDS011;11179;52.106;21.024;2023-06-22T05:30:37;50.40;;;32.37;;
22030;SDS011;11179;52.106;21.024;2023-06-22T05:33:02;52.00;;;31.57;;
22030;SDS011;11179;52.106;21.024;2023-06-22T05:35:28;50.50;;;31.13;;
22030;SDS011;11179;52.106;21.024;2023-06-22T05:37:54;51.63;;;32.50;;
22030;SDS011;11179;52.106;21.024;2023-06-22T05:40:20;48.10;;;30.90;;
22030;SDS011;11179;52.106;21.024;2023-06-22T05:42:45;49.63;;;29.40;;
22030;SDS011;11179;52.106;21.024;2023-06-22T05:45:11;52.10;;;30.10;;
22030;SDS011;11179;52.106;21.024;2023-06-22T05:47:36;47.63;;;30.43;;
22030;SDS011;11179;52.106;21.024;2023-06-22T05:50:01;51.20;;;30.73;;
22030;SDS011;11179;52.106;21.024;2023-06-22T05:52:31;47.07;;;29.37;;
22030;SDS011;11179;52.106;21.024;2023-06-22T05:54:56;48.57;;;28.47;;
22030;SDS011;11179;52.106;21.024;2023-06-22T05:57:22;46.30;;;29.23;;
22030;SDS011;11179;52.106;21.024;2023-06-22T05:59:47;50.33;;;27.87;;
22030;SDS011;11179;52.106;21.024;2023-06-22T06:02:12;44.10;;;27.63;;
22030;SDS011;11179;52.106;21.024;2023-06-22T06:04:38;44.07;;;28.50;;
22030;SDS011;11179;52.106;21.024;2023-06-22T06:07:03;46.60;;;28.80;;
22030;SDS011;11179;52.106;21.024;2023-06-22T06:09:28;42.77;;;26.23;;
22030;SDS011;11179;52.106;21.024;2023-06-22T06:11:54;46.70;;;28.47;;
22030;SDS011;11179;52.106;21.024;2023-06-22T06:14:19;42.10;;;27.47;;
22030;SDS011;11179;52.106;21.024;2023-06-22T06:16:45;40.93;;;26.30;;
22030;SDS011;11179;52.106;21.024;2023-06-22T06:19:10;42.40;;;26.23;;
22030;SDS011;11179;52.106;21.024;2023-06-22T06:21:35;50.80;;;27.73;;
22030;SDS011;11179;52.106;21.024;2023-06-22T06:24:01;47.03;;;27.97;;
22030;SDS011;11179;52.106;21.024;2023-06-22T06:26:26;43.70;;;25.60;;
22030;SDS011;11179;52.106;21.024;2023-06-22T06:28:58;46.97;;;25.00;;
22030;SDS011;11179;52.106;21.024;2023-06-22T06:31:25;45.43;;;26.73;;
22030;SDS011;11179;52.106;21.024;2023-06-22T06:33:53;41.93;;;25.50;;
22030;SDS011;11179;52.106;21.024;2023-06-22T06:36:19;37.70;;;23.50;;
22030;SDS011;11179;52.106;21.024;2023-06-22T06:38:44;41.57;;;25.97;;
22030;SDS011;11179;52.106;21.024;2023-06-22T06:41:12;39.33;;;25.30;;
22030;SDS011;11179;52.106;21.024;2023-06-22T06:43:37;39.17;;;23.90;;
22030;SDS011;11179;52.106;21.024;2023-06-22T06:46:03;36.33;;;22.53;;
22030;SDS011;11179;52.106;21.024;2023-06-22T06:48:28;37.87;;;23.90;;
22030;SDS011;11179;52.106;21.024;2023-06-22T06:50:53;36.40;;;24.10;;
22030;SDS011;11179;52.106;21.024;2023-06-22T06:53:18;35.87;;;24.13;;
22030;SDS011;11179;52.106;21.024;2023-06-22T06:55:44;36.30;;;23.50;;
22030;SDS011;11179;52.106;21.024;2023-06-22T06:58:10;35.40;;;21.70;;
22030;SDS011;11179;52.106;21.024;2023-06-22T07:00:38;36.17;;;21.37;;
22030;SDS011;11179;52.106;21.024;2023-06-22T07:03:03;39.93;;;22.07;;
22030;SDS011;11179;52.106;21.024;2023-06-22T07:05:29;34.87;;;21.07;;
22030;SDS011;11179;52.106;21.024;2023-06-22T07:07:54;32.83;;;20.30;;
22030;SDS011;11179;52.106;21.024;2023-06-22T07:10:19;32.43;;;21.30;;
22030;SDS011;11179;52.106;21.024;2023-06-22T07:12:45;30.80;;;19.50;;
22030;SDS011;11179;52.106;21.024;2023-06-22T07:15:11;28.20;;;19.80;;
22030;SDS011;11179;52.106;21.024;2023-06-22T07:17:37;27.60;;;18.67;;
22030;SDS011;11179;52.106;21.024;2023-06-22T07:20:06;30.37;;;19.10;;
22030;SDS011;11179;52.106;21.024;2023-06-22T07:22:37;32.23;;;18.20;;
22030;SDS011;11179;52.106;21.024;2023-06-22T07:25:07;26.80;;;16.63;;
22030;SDS011;11179;52.106;21.024;2023-06-22T07:27:39;24.23;;;16.23;;
22030;SDS011;11179;52.106;21.024;2023-06-22T07:30:10;25.93;;;15.57;;
22030;SDS011;11179;52.106;21.024;2023-06-22T07:32:36;28.10;;;15.17;;
22030;SDS011;11179;52.106;21.024;2023-06-22T07:35:02;26.87;;;14.93;;
22030;SDS011;11179;52.106;21.024;2023-06-22T07:37:28;22.23;;;13.60;;
22030;SDS011;11179;52.106;21.024;2023-06-22T07:39:54;23.20;;;13.17;;
22030;SDS011;11179;52.106;21.024;2023-06-22T07:42:23;20.00;;;14.03;;
22030;SDS011;11179;52.106;21.024;2023-06-22T07:44:52;21.70;;;13.70;;
22030;SDS011;11179;52.106;21.024;2023-06-22T07:47:17;17.30;;;11.43;;
22030;SDS011;11179;52.106;21.024;2023-06-22T07:49:44;17.77;;;10.87;;
22030;SDS011;11179;52.106;21.024;2023-06-22T07:52:10;17.97;;;10.77;;
22030;SDS011;11179;52.106;21.024;2023-06-22T07:54:36;19.00;;;11.60;;
22030;SDS011;11179;52.106;21.024;2023-06-22T07:57:01;17.43;;;11.30;;
22030;SDS011;11179;52.106;21.024;2023-06-22T07:59:26;23.93;;;10.50;;
22030;SDS011;11179;52.106;21.024;2023-06-22T08:01:52;16.50;;;10.37;;
22030;SDS011;11179;52.106;21.024;2023-06-22T08:04:17;22.53;;;10.13;;
22030;SDS011;11179;52.106;21.024;2023-06-22T08:06:42;19.33;;;8.43;;
22030;SDS011;11179;52.106;21.024;2023-06-22T08:09:08;13.90;;;8.33;;
22030;SDS011;11179;52.106;21.024;2023-06-22T08:11:34;16.93;;;8.40;;
22030;SDS011;11179;52.106;21.024;2023-06-22T08:13:59;16.20;;;9.80;;
22030;SDS011;11179;52.106;21.024;2023-06-22T08:16:24;18.33;;;10.10;;
22030;SDS011;11179;52.106;21.024;2023-06-22T08:18:50;15.40;;;9.27;;
22030;SDS011;11179;52.106;21.024;2023-06-22T08:21:15;13.97;;;7.73;;
22030;SDS011;11179;52.106;21.024;2023-06-22T08:23:40;12.23;;;8.40;;
22030;SDS011;11179;52.106;21.024;2023-06-22T08:26:06;14.27;;;8.07;;
22030;SDS011;11179;52.106;21.024;2023-06-22T08:28:31;13.67;;;8.63;;
22030;SDS011;11179;52.106;21.024;2023-06-22T08:30:57;12.33;;;7.00;;
22030;SDS011;11179;52.106;21.024;2023-06-22T08:33:22;12.27;;;7.10;;
22030;SDS011;11179;52.106;21.024;2023-06-22T08:35:53;12.87;;;7.60;;
22030;SDS011;11179;52.106;21.024;2023-06-22T08:38:20;13.53;;;8.10;;
22030;SDS011;11179;52.106;21.024;2023-06-22T08:40:45;16.23;;;7.40;;
22030;SDS011;11179;52.106;21.024;2023-06-22T08:43:10;12.57;;;7.10;;
22030;SDS011;11179;52.106;21.024;2023-06-22T08:45:36;16.30;;;7.53;;
22030;SDS011;11179;52.106;21.024;2023-06-22T08:48:01;14.50;;;7.07;;
22030;SDS011;11179;52.106;21.024;2023-06-22T08:50:27;14.57;;;7.03;;
22030;SDS011;11179;52.106;21.024;2023-06-22T08:52:52;10.03;;;6.20;;
22030;SDS011;11179;52.106;21.024;2023-06-22T08:55:18;12.67;;;6.67;;
22030;SDS011;11179;52.106;21.024;2023-06-22T08:57:43;11.37;;;6.10;;
22030;SDS011;11179;52.106;21.024;2023-06-22T09:00:09;9.13;;;5.43;;
22030;SDS011;11179;52.106;21.024;2023-06-22T09:02:45;11.10;;;5.87;;
22030;SDS011;11179;52.106;21.024;2023-06-22T09:05:13;14.47;;;6.10;;
22030;SDS011;11179;52.106;21.024;2023-06-22T09:07:39;12.17;;;5.60;;
22030;SDS011;11179;52.106;21.024;2023-06-22T09:10:05;7.80;;;4.57;;
22030;SDS011;11179;52.106;21.024;2023-06-22T09:12:31;9.47;;;5.87;;
22030;SDS011;11179;52.106;21.024;2023-06-22T09:14:57;8.93;;;5.23;;
22030;SDS011;11179;52.106;21.024;2023-06-22T09:17:25;8.00;;;5.07;;
22030;SDS011;11179;52.106;21.024;2023-06-22T09:19:50;9.73;;;5.00;;
22030;SDS011;11179;52.106;21.024;2023-06-22T09:22:16;12.87;;;4.90;;
22030;SDS011;11179;52.106;21.024;2023-06-22T09:24:41;7.87;;;4.67;;
22030;SDS011;11179;52.106;21.024;2023-06-22T09:27:06;8.70;;;4.47;;
22030;SDS011;11179;52.106;21.024;2023-06-22T09:29:32;11.23;;;4.23;;
22030;SDS011;11179;52.106;21.024;2023-06-22T09:31:58;8.50;;;3.93;;
22030;SDS011;11179;52.106;21.024;2023-06-22T09:34:24;7.47;;;4.17;;
22030;SDS011;11179;52.106;21.024;2023-06-22T09:36:50;7.10;;;3.93;;
22030;SDS011;11179;52.106;21.024;2023-06-22T09:39:15;8.00;;;3.73;;
22030;SDS011;11179;52.106;21.024;2023-06-22T09:41:40;7.10;;;4.00;;
22030;SDS011;11179;52.106;21.024;2023-06-22T09:44:06;10.23;;;4.33;;
22030;SDS011;11179;52.106;21.024;2023-06-22T09:46:31;7.00;;;3.80;;
22030;SDS011;11179;52.106;21.024;2023-06-22T09:48:56;8.60;;;3.70;;
22030;SDS011;11179;52.106;21.024;2023-06-22T09:51:22;7.87;;;3.93;;
22030;SDS011;11179;52.106;21.024;2023-06-22T09:53:48;10.03;;;3.90;;
22030;SDS011;11179;52.106;21.024;2023-06-22T09:56:18;9.10;;;4.40;;
22030;SDS011;11179;52.106;21.024;2023-06-22T09:58:44;8.47;;;3.87;;
22030;SDS011;11179;52.106;21.024;2023-06-22T10:01:11;6.53;;;3.60;;
22030;SDS011;11179;52.106;21.024;2023-06-22T10:03:36;10.60;;;3.93;;
22030;SDS011;11179;52.106;21.024;2023-06-22T10:06:02;12.70;;;3.60;;
22030;SDS011;11179;52.106;21.024;2023-06-22T10:08:28;9.60;;;4.00;;
22030;SDS011;11179;52.106;21.024;2023-06-22T10:10:53;9.47;;;4.00;;
22030;SDS011;11179;52.106;21.024;2023-06-22T10:13:18;8.13;;;3.93;;
22030;SDS011;11179;52.106;21.024;2023-06-22T10:15:44;6.17;;;3.57;;
22030;SDS011;11179;52.106;21.024;2023-06-22T10:18:14;7.80;;;3.83;;
22030;SDS011;11179;52.106;21.024;2023-06-22T10:20:41;11.97;;;4.27;;
22030;SDS011;11179;52.106;21.024;2023-06-22T10:23:06;10.50;;;3.97;;
22030;SDS011;11179;52.106;21.024;2023-06-22T10:25:31;7.70;;;4.47;;
22030;SDS011;11179;52.106;21.024;2023-06-22T10:27:57;6.53;;;4.07;;
22030;SDS011;11179;52.106;21.024;2023-06-22T10:30:22;9.70;;;4.50;;
22030;SDS011;11179;52.106;21.024;2023-06-22T10:32:48;8.53;;;3.97;;
22030;SDS011;11179;52.106;21.024;2023-06-22T10:35:13;8.57;;;4.40;;
22030;SDS011;11179;52.106;21.024;2023-06-22T10:37:41;9.37;;;4.17;;
22030;SDS011;11179;52.106;21.024;2023-06-22T10:40:10;9.57;;;4.40;;
22030;SDS011;11179;52.106;21.024;2023-06-22T10:42:39;17.33;;;4.87;;
22030;SDS011;11179;52.106;21.024;2023-06-22T10:45:05;10.10;;;5.00;;
22030;SDS011;11179;52.106;21.024;2023-06-22T10:47:31;8.90;;;4.37;;
22030;SDS011;11179;52.106;21.024;2023-06-22T10:49:57;7.30;;;4.50;;
22030;SDS011;11179;52.106;21.024;2023-06-22T10:52:22;8.80;;;5.30;;
22030;SDS011;11179;52.106;21.024;2023-06-22T10:54:47;8.63;;;4.70;;
22030;SDS011;11179;52.106;21.024;2023-06-22T10:57:13;10.73;;;4.63;;
22030;SDS011;11179;52.106;21.024;2023-06-22T10:59:39;8.17;;;4.20;;
22030;SDS011;11179;52.106;21.024;2023-06-22T11:02:04;7.20;;;4.70;;
22030;SDS011;11179;52.106;21.024;2023-06-22T11:04:29;8.27;;;4.50;;
22030;SDS011;11179;52.106;21.024;2023-06-22T11:06:55;12.40;;;4.57;;
22030;SDS011;11179;52.106;21.024;2023-06-22T11:09:21;10.97;;;4.30;;
22030;SDS011;11179;52.106;21.024;2023-06-22T11:11:47;11.57;;;4.50;;
22030;SDS011;11179;52.106;21.024;2023-06-22T11:14:15;12.30;;;4.93;;
22030;SDS011;11179;52.106;21.024;2023-06-22T11:16:41;7.00;;;4.03;;
22030;SDS011;11179;52.106;21.024;2023-06-22T11:19:06;9.57;;;5.00;;
22030;SDS011;11179;52.106;21.024;2023-06-22T11:21:31;13.53;;;4.93;;
22030;SDS011;11179;52.106;21.024;2023-06-22T11:23:57;11.47;;;5.83;;
22030;SDS011;11179;52.106;21.024;2023-06-22T11:26:23;10.30;;;4.80;;
22030;SDS011;11179;52.106;21.024;2023-06-22T11:28:49;8.77;;;4.80;;
22030;SDS011;11179;52.106;21.024;2023-06-22T11:31:17;11.50;;;5.10;;
22030;SDS011;11179;52.106;21.024;2023-06-22T11:33:42;9.50;;;5.30;;
22030;SDS011;11179;52.106;21.024;2023-06-22T11:36:07;7.63;;;4.63;;
22030;SDS011;11179;52.106;21.024;2023-06-22T11:38:32;10.33;;;5.67;;
22030;SDS011;11179;52.106;21.024;2023-06-22T11:40:58;10.90;;;4.50;;
22030;SDS011;11179;52.106;21.024;2023-06-22T11:43:24;10.93;;;4.77;;
22030;SDS011;11179;52.106;21.024;2023-06-22T11:45:50;10.80;;;4.83;;
22030;SDS011;11179;52.106;21.024;2023-06-22T11:48:15;9.23;;;4.80;;
22030;SDS011;11179;52.106;21.024;2023-06-22T11:50:40;10.33;;;5.13;;
22030;SDS011;11179;52.106;21.024;2023-06-22T11:53:06;9.90;;;4.67;;
22030;SDS011;11179;52.106;21.024;2023-06-22T11:55:31;9.50;;;4.70;;
22030;SDS011;11179;52.106;21.024;2023-06-22T11:57:57;8.97;;;5.20;;
22030;SDS011;11179;52.106;21.024;2023-06-22T12:00:25;7.20;;;4.17;;
22030;SDS011;11179;52.106;21.024;2023-06-22T12:02:51;11.47;;;5.10;;
22030;SDS011;11179;52.106;21.024;2023-06-22T12:05:20;11.93;;;6.07;;
22030;SDS011;11179;52.106;21.024;2023-06-22T12:07:49;9.40;;;5.10;;
22030;SDS011;11179;52.106;21.024;2023-06-22T12:10:15;10.00;;;4.87;;
22030;SDS011;11179;52.106;21.024;2023-06-22T12:12:41;11.93;;;5.60;;
22030;SDS011;11179;52.106;21.024;2023-06-22T12:15:07;9.37;;;5.30;;
22030;SDS011;11179;52.106;21.024;2023-06-22T12:17:34;11.70;;;5.17;;
22030;SDS011;11179;52.106;21.024;2023-06-22T12:19:59;10.27;;;4.57;;
22030;SDS011;11179;52.106;21.024;2023-06-22T12:22:25;11.33;;;5.60;;
22030;SDS011;11179;52.106;21.024;2023-06-22T12:24:50;13.53;;;5.60;;
22030;SDS011;11179;52.106;21.024;2023-06-22T12:27:16;8.87;;;4.87;;
22030;SDS011;11179;52.106;21.024;2023-06-22T12:29:43;9.87;;;5.70;;
22030;SDS011;11179;52.106;21.024;2023-06-22T12:32:10;10.40;;;5.40;;
22030;SDS011;11179;52.106;21.024;2023-06-22T12:34:37;10.90;;;4.90;;
22030;SDS011;11179;52.106;21.024;2023-06-22T12:37:03;8.97;;;4.93;;
22030;SDS011;11179;52.106;21.024;2023-06-22T12:39:30;8.83;;;4.60;;
22030;SDS011;11179;52.106;21.024;2023-06-22T12:41:56;13.87;;;5.67;;
22030;SDS011;11179;52.106;21.024;2023-06-22T12:44:21;10.93;;;6.10;;
22030;SDS011;11179;52.106;21.024;2023-06-22T12:46:47;12.90;;;5.57;;
22030;SDS011;11179;52.106;21.024;2023-06-22T12:49:15;9.10;;;5.20;;
22030;SDS011;11179;52.106;21.024;2023-06-22T12:51:41;12.80;;;5.20;;
22030;SDS011;11179;52.106;21.024;2023-06-22T12:54:12;11.37;;;5.10;;
22030;SDS011;11179;52.106;21.024;2023-06-22T12:56:37;8.50;;;4.97;;
22030;SDS011;11179;52.106;21.024;2023-06-22T12:59:03;10.83;;;5.20;;
22030;SDS011;11179;52.106;21.024;2023-06-22T13:01:32;10.60;;;5.73;;
22030;SDS011;11179;52.106;21.024;2023-06-22T13:03:58;9.77;;;5.53;;
22030;SDS011;11179;52.106;21.024;2023-06-22T13:06:24;8.43;;;5.00;;
22030;SDS011;11179;52.106;21.024;2023-06-22T13:08:49;8.97;;;4.50;;
22030;SDS011;11179;52.106;21.024;2023-06-22T13:11:15;10.87;;;4.67;;
22030;SDS011;11179;52.106;21.024;2023-06-22T13:13:40;11.37;;;5.80;;
22030;SDS011;11179;52.106;21.024;2023-06-22T13:16:06;9.93;;;5.27;;
22030;SDS011;11179;52.106;21.024;2023-06-22T13:18:32;10.43;;;4.30;;
22030;SDS011;11179;52.106;21.024;2023-06-22T13:20:59;7.60;;;4.53;;
22030;SDS011;11179;52.106;21.024;2023-06-22T13:23:25;9.43;;;4.87;;
22030;SDS011;11179;52.106;21.024;2023-06-22T13:25:50;12.10;;;5.70;;
22030;SDS011;11179;52.106;21.024;2023-06-22T13:28:16;13.67;;;5.60;;
22030;SDS011;11179;52.106;21.024;2023-06-22T13:30:42;10.30;;;5.10;;
22030;SDS011;11179;52.106;21.024;2023-06-22T13:33:07;7.60;;;4.40;;
22030;SDS011;11179;52.106;21.024;2023-06-22T13:35:33;7.43;;;4.33;;
22030;SDS011;11179;52.106;21.024;2023-06-22T13:38:00;9.17;;;4.60;;
22030;SDS011;11179;52.106;21.024;2023-06-22T13:40:25;8.20;;;4.43;;
22030;SDS011;11179;52.106;21.024;2023-06-22T13:42:51;7.57;;;4.80;;
22030;SDS011;11179;52.106;21.024;2023-06-22T13:45:16;13.33;;;5.07;;
22030;SDS011;11179;52.106;21.024;2023-06-22T13:47:42;8.70;;;4.60;;
22030;SDS011;11179;52.106;21.024;2023-06-22T13:50:08;13.33;;;5.63;;
22030;SDS011;11179;52.106;21.024;2023-06-22T13:52:34;12.43;;;5.23;;
22030;SDS011;11179;52.106;21.024;2023-06-22T13:54:59;7.80;;;4.40;;
22030;SDS011;11179;52.106;21.024;2023-06-22T13:57:25;12.60;;;4.10;;
22030;SDS011;11179;52.106;21.024;2023-06-22T13:59:50;11.30;;;4.13;;
22030;SDS011;11179;52.106;21.024;2023-06-22T14:02:15;9.00;;;4.90;;
22030;SDS011;11179;52.106;21.024;2023-06-22T14:04:41;7.70;;;3.83;;
22030;SDS011;11179;52.106;21.024;2023-06-22T14:07:06;8.37;;;3.97;;
22030;SDS011;11179;52.106;21.024;2023-06-22T14:09:31;9.97;;;3.93;;
22030;SDS011;11179;52.106;21.024;2023-06-22T14:11:57;7.70;;;4.03;;
22030;SDS011;11179;52.106;21.024;2023-06-22T14:14:22;7.57;;;4.17;;
22030;SDS011;11179;52.106;21.024;2023-06-22T14:16:47;12.77;;;4.47;;